Time;durP1;ratioP1;P1;durP2;ratioP2;P2;SDS_P1;SDS_P2;PMS_P1;PMS_P2;Temp;Humidity;BMP_temperature;BMP_pressure;BME280_temperature;BME280_humidity;BME280_pressure;Samples;Min_cycle;Max_cycle;Signal;HPM_P1;HPM_P2
2020/12/24 00:01:34;;;;;;;1.02;0.50;;;;;;;8.34;84.00;96093.94;4868157;29;20497;-74
2020/12/24 00:04:00;;;;;;;1.27;0.50;;;;;;;8.34;84.19;96086.91;4870901;29;20524;-73
2020/12/24 00:06:26;;;;;;;0.43;0.30;;;;;;;8.37;84.32;96090.09;4867212;29;20053;-73
2020/12/24 00:08:52;;;;;;;1.42;0.63;;;;;;;8.38;84.21;96068.19;4875414;29;20394;-73
2020/12/24 00:11:19;;;;;;;1.05;0.60;;;;;;;8.36;84.37;96055.34;4869376;29;20045;-74
2020/12/24 00:13:45;;;;;;;1.15;0.60;;;;;;;8.41;84.51;96068.59;4865526;29;20049;-74
2020/12/24 00:16:11;;;;;;;1.23;0.90;;;;;;;8.43;84.80;96069.19;4866268;29;20053;-74
2020/12/24 00:18:37;;;;;;;2.95;0.98;;;;;;;8.46;84.76;96067.94;4856543;29;20048;-74
2020/12/24 00:21:07;;;;;;;1.02;0.80;;;;;;;8.47;84.86;96059.91;4873139;29;20048;-74
2020/12/24 00:23:33;;;;;;;0.35;0.35;;;;;;;8.45;84.55;96061.13;4874431;29;20049;-74
2020/12/24 00:26:04;;;;;;;0.80;0.65;;;;;;;8.45;84.87;96063.75;4875606;29;20045;-73
2020/12/24 00:28:31;;;;;;;1.13;1.05;;;;;;;8.45;85.02;96061.94;4868061;29;20041;-74
2020/12/24 00:30:59;;;;;;;1.10;0.80;;;;;;;8.46;84.98;96055.69;4870362;29;20041;-74
2020/12/24 00:33:26;;;;;;;2.45;0.60;;;;;;;8.42;85.10;96051.09;4872888;29;20390;-74
2020/12/24 00:35:52;;;;;;;2.90;0.98;;;;;;;8.40;85.01;96051.31;4877104;29;20040;-73
2020/12/24 00:38:19;;;;;;;0.65;0.65;;;;;;;8.39;85.28;96048.88;4876006;29;20045;-74
2020/12/24 00:40:46;;;;;;;1.13;0.63;;;;;;;8.39;85.51;96062.75;4871366;29;20061;-74
2020/12/24 00:43:12;;;;;;;1.98;0.80;;;;;;;8.41;85.76;96071.19;4873560;29;20052;-74
2020/12/24 00:45:38;;;;;;;1.00;0.50;;;;;;;8.43;85.66;96084.06;4869981;29;20065;-74
2020/12/24 00:48:04;;;;;;;1.17;0.77;;;;;;;8.40;85.74;96081.84;4873837;29;20065;-74
2020/12/24 00:50:30;;;;;;;0.82;0.60;;;;;;;8.37;85.77;96077.03;4881220;29;20053;-74
2020/12/24 00:52:57;;;;;;;2.33;0.63;;;;;;;8.35;85.75;96087.69;4871267;29;20056;-74
2020/12/24 00:55:23;;;;;;;0.35;0.35;;;;;;;8.34;85.89;96068.63;4858380;29;20053;-74
2020/12/24 00:57:49;;;;;;;0.85;0.50;;;;;;;8.33;85.81;96068.81;4876360;29;20038;-73
2020/12/24 01:00:15;;;;;;;0.75;0.57;;;;;;;8.30;85.74;96072.66;4875319;29;20037;-74
2020/12/24 01:02:41;;;;;;;1.23;0.60;;;;;;;8.27;86.04;96080.13;4870154;29;20037;-74
2020/12/24 01:05:07;;;;;;;3.83;0.50;;;;;;;8.23;86.17;96074.53;4873874;29;20050;-74
2020/12/24 01:07:34;;;;;;;1.02;0.50;;;;;;;8.21;85.88;96089.63;4875222;29;20057;-73
2020/12/24 01:10:03;;;;;;;2.63;0.43;;;;;;;8.17;85.53;96098.88;4854229;29;20037;-73
2020/12/24 01:12:29;;;;;;;4.53;0.68;;;;;;;8.12;84.87;96096.88;4871272;29;20072;-73
2020/12/24 01:14:55;;;;;;;1.58;0.60;;;;;;;8.07;84.67;96091.50;4868036;29;20406;-73
2020/12/24 01:17:21;;;;;;;2.03;0.50;;;;;;;8.04;84.96;96088.50;4875204;29;20037;-73
2020/12/24 01:19:47;;;;;;;2.63;0.40;;;;;;;7.99;84.68;96106.63;4871551;29;20053;-74
2020/12/24 01:22:14;;;;;;;1.90;0.50;;;;;;;7.96;84.73;96104.41;4873938;29;20500;-73
2020/12/24 01:24:40;;;;;;;1.27;0.52;;;;;;;7.94;84.22;96117.69;4868143;29;20041;-73
2020/12/24 01:27:06;;;;;;;0.80;0.47;;;;;;;7.91;83.85;96105.84;4877723;29;20057;-74
2020/12/24 01:29:32;;;;;;;1.40;0.50;;;;;;;7.88;83.24;96102.88;4871068;29;20033;-73
2020/12/24 01:31:58;;;;;;;0.77;0.47;;;;;;;7.83;83.05;96113.94;4871286;29;20489;-73
2020/12/24 01:34:25;;;;;;;2.67;0.60;;;;;;;7.79;82.41;96120.59;4869445;29;20042;-73
2020/12/24 01:36:51;;;;;;;0.70;0.40;;;;;;;7.75;82.34;96129.84;4871278;29;20407;-73
2020/12/24 01:39:17;;;;;;;1.33;0.40;;;;;;;7.71;82.10;96139.88;4875504;29;20053;-73
2020/12/24 01:41:47;;;;;;;0.50;0.30;;;;;;;7.67;81.07;96153.56;4868087;29;20045;-73
2020/12/24 01:44:13;;;;;;;0.60;0.40;;;;;;;7.63;81.43;96168.03;4869453;29;20065;-74
2020/12/24 01:46:39;;;;;;;1.00;0.38;;;;;;;7.58;81.16;96175.66;4870284;29;20418;-73
2020/12/24 01:49:05;;;;;;;1.23;0.57;;;;;;;7.53;81.00;96174.47;4871920;29;20049;-73
2020/12/24 01:51:32;;;;;;;3.40;0.50;;;;;;;7.47;81.04;96164.84;4875595;29;20037;-74
2020/12/24 01:53:59;;;;;;;3.40;0.45;;;;;;;7.43;80.70;96129.75;4856487;29;20044;-73
2020/12/24 01:56:26;;;;;;;0.85;0.45;;;;;;;7.39;80.89;96132.97;4870491;29;20049;-73
2020/12/24 01:58:54;;;;;;;2.90;0.70;;;;;;;7.31;81.11;96132.19;4871310;29;20050;-74
2020/12/24 02:01:21;;;;;;;1.73;0.57;;;;;;;7.23;80.73;96127.19;4863317;29;20041;-74
2020/12/24 02:03:48;;;;;;;4.30;0.50;;;;;;;7.14;79.99;96135.41;4868075;29;20383;-73
2020/12/24 02:06:14;;;;;;;1.27;0.50;;;;;;;7.01;80.28;96126.63;4876779;29;20041;-75
2020/12/24 02:08:40;;;;;;;1.10;0.63;;;;;;;6.93;80.53;96121.63;4872556;29;20037;-74
2020/12/24 02:11:07;;;;;;;2.20;0.68;;;;;;;6.85;80.90;96120.03;4871268;29;20053;-74
2020/12/24 02:13:34;;;;;;;1.50;0.40;;;;;;;6.83;80.87;96108.22;4872164;29;20048;-73
2020/12/24 02:16:00;;;;;;;0.98;0.38;;;;;;;6.77;80.84;96080.34;4868411;29;20041;-73
2020/12/24 02:18:27;;;;;;;2.35;0.30;;;;;;;6.72;81.16;96060.13;4863349;29;20041;-73
2020/12/24 02:20:53;;;;;;;0.98;0.45;;;;;;;6.67;81.02;96045.06;4869758;29;20056;-73
2020/12/24 02:23:19;;;;;;;1.58;1.08;;;;;;;6.65;81.49;96030.66;4876947;29;20048;-73
2020/12/24 02:25:45;;;;;;;1.42;0.40;;;;;;;6.62;81.42;96034.47;4874344;29;20474;-73
2020/12/24 02:28:11;;;;;;;0.30;0.30;;;;;;;6.61;81.43;96022.44;4865060;29;20053;-73
2020/12/24 02:30:38;;;;;;;1.40;0.50;;;;;;;6.58;81.50;96015.03;4872932;29;20034;-73
2020/12/24 02:33:05;;;;;;;0.43;0.40;;;;;;;6.60;81.82;96004.41;4869270;29;20053;-73
2020/12/24 02:35:32;;;;;;;1.05;0.30;;;;;;;6.62;82.20;96020.66;4877718;29;20063;-73
2020/12/24 02:38:00;;;;;;;1.27;0.40;;;;;;;6.64;82.01;96013.44;4866298;29;20041;-73
2020/12/24 02:40:26;;;;;;;0.45;0.35;;;;;;;6.65;82.00;96026.22;4873394;29;20038;-73
2020/12/24 02:42:52;;;;;;;2.05;0.80;;;;;;;6.64;82.02;96024.66;4876677;29;20049;-73
2020/12/24 02:45:18;;;;;;;1.92;0.50;;;;;;;6.67;81.95;96021.63;4872597;29;20104;-73
2020/12/24 02:47:44;;;;;;;2.25;0.60;;;;;;;6.69;82.14;96024.81;4865413;29;20053;-73
2020/12/24 02:50:11;;;;;;;2.63;0.77;;;;;;;6.67;82.13;96028.63;4869967;29;20048;-72
2020/12/24 02:52:37;;;;;;;1.52;0.90;;;;;;;6.68;82.12;96038.06;4872371;29;20052;-73
2020/12/24 02:55:04;;;;;;;1.58;0.70;;;;;;;6.63;82.53;96036.06;4872712;29;20037;-75
2020/12/24 02:57:32;;;;;;;1.15;0.70;;;;;;;6.60;82.49;96040.88;4875304;29;20041;-73
2020/12/24 03:00:01;;;;;;;3.80;0.70;;;;;;;6.58;82.96;96035.06;4871561;29;20040;-72
2020/12/24 03:02:28;;;;;;;0.57;0.50;;;;;;;6.59;82.99;96054.91;4866284;29;20054;-73
2020/12/24 03:04:54;;;;;;;1.30;0.55;;;;;;;6.59;83.13;96055.69;4872278;29;20049;-73
2020/12/24 03:07:20;;;;;;;0.80;0.50;;;;;;;6.60;83.00;96062.53;4860431;29;20048;-74
2020/12/24 03:09:46;;;;;;;1.35;0.60;;;;;;;6.59;83.09;96057.50;4863908;29;20490;-73
2020/12/24 03:12:16;;;;;;;3.15;0.70;;;;;;;6.59;83.36;96042.66;4873069;29;20049;-73
2020/12/24 03:14:43;;;;;;;1.30;0.60;;;;;;;6.56;83.37;96016.25;4856497;29;20060;-73
2020/12/24 03:17:09;;;;;;;0.47;0.40;;;;;;;6.54;83.49;96003.41;4869880;29;20041;-73
2020/12/24 03:19:35;;;;;;;1.33;0.45;;;;;;;6.52;83.43;96002.81;4866907;29;20045;-74
2020/12/24 03:22:02;;;;;;;1.40;0.73;;;;;;;6.51;83.42;95998.63;4866697;29;20041;-73
2020/12/24 03:24:28;;;;;;;3.83;0.80;;;;;;;6.49;83.35;95998.03;4867796;29;20048;-73
2020/12/24 03:26:54;;;;;;;1.95;0.57;;;;;;;6.44;83.75;96009.03;4870853;29;20056;-73
2020/12/24 03:29:20;;;;;;;0.30;0.30;;;;;;;6.42;83.90;95997.22;4870498;29;20462;-75
2020/12/24 03:31:46;;;;;;;1.65;0.52;;;;;;;6.43;83.82;95998.84;4873226;29;20049;-73
2020/12/24 03:34:12;;;;;;;2.22;0.50;;;;;;;6.38;84.18;95988.19;4872801;29;20045;-73
2020/12/24 03:36:44;;;;;;;2.25;0.93;;;;;;;6.34;84.21;95992.22;4869186;29;20052;-73
2020/12/24 03:41:50;;;;;;;2.55;0.70;;;;;;;6.30;84.01;95979.59;5192214;23;20162;-76
2020/12/24 03:44:17;;;;;;;2.03;0.60;;;;;;;6.27;84.03;95980.00;4936094;29;20052;-73
2020/12/24 03:46:43;;;;;;;3.65;0.82;;;;;;;6.26;84.10;95995.84;4919462;29;20051;-74
2020/12/24 03:49:09;;;;;;;3.05;0.50;;;;;;;6.26;84.00;96001.84;4937039;29;20050;-74
2020/12/24 03:51:35;;;;;;;2.72;0.60;;;;;;;6.25;84.14;96005.44;4920299;29;20494;-74
2020/12/24 03:54:01;;;;;;;1.35;0.70;;;;;;;6.27;84.30;96010.44;4936514;29;20038;-73
2020/12/24 03:56:27;;;;;;;1.55;0.68;;;;;;;6.26;84.24;96003.66;4935793;29;20395;-74
2020/12/24 03:58:53;;;;;;;0.40;0.40;;;;;;;6.26;84.34;96009.66;4935288;29;20048;-73
2020/12/24 04:01:20;;;;;;;2.47;0.65;;;;;;;6.27;84.10;96005.25;4936359;29;20051;-73
2020/12/24 04:03:46;;;;;;;1.10;0.60;;;;;;;6.27;84.46;96011.25;4935783;29;20043;-74
2020/12/24 04:06:12;;;;;;;1.13;0.60;;;;;;;6.28;84.27;96010.25;4935706;29;20031;-74
2020/12/24 04:08:38;;;;;;;0.82;0.60;;;;;;;6.31;84.20;96009.03;4934899;29;20055;-74
2020/12/24 04:11:04;;;;;;;1.88;0.60;;;;;;;6.32;84.20;96025.47;4919041;29;20047;-73
2020/12/24 04:13:30;;;;;;;1.23;0.60;;;;;;;6.29;84.14;96037.88;4935810;29;20040;-73
2020/12/24 04:15:57;;;;;;;2.88;0.73;;;;;;;6.25;84.38;96028.88;4935704;29;20046;-73
2020/12/24 04:18:23;;;;;;;1.63;0.65;;;;;;;6.23;84.84;96024.88;4935202;29;20400;-74
2020/12/24 04:20:49;;;;;;;4.30;0.73;;;;;;;6.18;84.89;96003.84;4935640;29;20062;-73
2020/12/24 04:23:15;;;;;;;1.52;0.55;;;;;;;6.18;84.90;96014.28;4935698;29;20048;-74
2020/12/24 04:25:41;;;;;;;2.38;0.50;;;;;;;6.16;85.11;95998.84;4935654;29;20047;-74
2020/12/24 04:28:07;;;;;;;0.40;0.40;;;;;;;6.16;85.10;95993.63;4935854;29;20047;-74
2020/12/24 04:30:33;;;;;;;0.75;0.32;;;;;;;6.16;85.33;95987.63;4935996;29;20035;-73
2020/12/24 04:32:59;;;;;;;1.25;0.50;;;;;;;6.17;85.24;95991.81;4935871;29;20050;-73
2020/12/24 04:35:36;;;;;;;1.13;0.40;;;;;;;6.17;85.63;95999.63;4935548;29;20040;-74
2020/12/24 04:40:39;;;;;;;2.92;0.57;;;;;;;6.08;85.02;95983.41;4204994;23;20144;-75
2020/12/24 04:43:06;;;;;;;0.38;0.20;;;;;;;6.01;84.85;95985.22;4935317;29;20047;-77
2020/12/24 04:45:35;;;;;;;2.80;0.70;;;;;;;5.96;84.90;95990.22;4918421;29;20036;-77
2020/12/24 04:48:01;;;;;;;0.95;0.45;;;;;;;5.87;85.05;95979.97;4918786;29;20050;-77
2020/12/24 04:50:30;;;;;;;0.40;0.30;;;;;;;5.79;85.17;95979.38;4935473;29;20041;-77
2020/12/24 04:52:57;;;;;;;0.65;0.40;;;;;;;5.71;85.30;95969.94;4935075;29;20380;-77
2020/12/24 04:55:24;;;;;;;2.95;0.30;;;;;;;5.69;85.30;95969.34;4918166;29;20056;-77
2020/12/24 04:57:50;;;;;;;2.47;0.50;;;;;;;5.65;85.40;95965.56;4934605;29;20409;-77
2020/12/24 05:00:18;;;;;;;2.20;0.40;;;;;;;5.62;85.38;95951.13;4934502;29;20411;-77
2020/12/24 05:02:44;;;;;;;3.22;0.65;;;;;;;5.58;85.62;95949.94;4917560;29;20059;-77
2020/12/24 05:05:11;;;;;;;3.42;0.65;;;;;;;5.61;85.55;95953.97;4888241;29;20383;-77
2020/12/24 05:07:44;;;;;;;1.92;0.63;;;;;;;5.60;85.67;95949.72;4938365;29;20369;-77
2020/12/24 05:10:13;;;;;;;3.67;0.80;;;;;;;5.60;85.63;95952.34;4909626;29;20070;-77
2020/12/24 05:12:40;;;;;;;0.68;0.52;;;;;;;5.59;85.52;95954.16;4921463;29;20407;-77
2020/12/24 05:15:06;;;;;;;2.45;0.50;;;;;;;5.58;85.56;95947.31;4938583;29;20062;-77
2020/12/24 05:17:32;;;;;;;2.88;0.50;;;;;;;5.59;85.87;95943.75;4921320;29;20036;-77
2020/12/24 05:20:08;;;;;;;1.52;0.68;;;;;;;5.61;85.44;95956.56;4921278;29;20051;-77
2020/12/24 05:22:34;;;;;;;0.70;0.57;;;;;;;5.59;85.47;95953.34;4938526;29;20050;-77
2020/12/24 05:25:11;;;;;;;4.63;0.82;;;;;;;5.56;85.58;95964.94;4921426;29;20051;-77
2020/12/24 05:27:38;;;;;;;4.43;0.50;;;;;;;5.55;85.71;95958.13;4937953;29;20074;-77
2020/12/24 05:30:05;;;;;;;0.55;0.50;;;;;;;5.55;85.36;95957.34;4904876;29;20062;-77
2020/12/24 05:32:32;;;;;;;3.55;0.68;;;;;;;5.51;85.37;95954.34;4938593;29;20044;-77
2020/12/24 05:35:12;;;;;;;0.43;0.40;;;;;;;5.48;85.34;95957.31;4937820;29;20051;-77
2020/12/24 05:40:23;;;;;;;3.45;0.50;;;;;;;5.40;85.30;95958.31;5246089;23;20034;-75
2020/12/24 05:43:00;;;;;;;2.95;0.40;;;;;;;5.36;85.31;95953.72;4937206;29;20078;-76
2020/12/24 05:45:30;;;;;;;1.83;0.80;;;;;;;5.31;85.44;95941.28;4937311;29;20055;-75
2020/12/24 05:48:07;;;;;;;6.63;1.00;;;;;;;5.29;85.75;95936.28;4938055;29;20399;-76
2020/12/24 05:50:33;;;;;;;3.90;1.90;;;;;;;5.26;85.50;95936.66;4937703;29;20047;-76
2020/12/24 05:53:13;;;;;;;4.20;1.70;;;;;;;5.25;85.60;95940.28;4937924;29;20059;-75
2020/12/24 05:55:41;;;;;;;4.88;1.20;;;;;;;5.23;85.50;95938.88;4926184;29;20052;-75
2020/12/24 05:58:08;;;;;;;2.47;1.20;;;;;;;5.25;85.69;95944.69;4937626;29;20055;-75
2020/12/24 06:00:40;;;;;;;3.22;1.27;;;;;;;5.28;85.64;95949.47;4920337;29;20066;-75
2020/12/24 06:03:10;;;;;;;2.03;0.90;;;;;;;5.29;85.37;95938.91;4937874;29;20050;-76
2020/12/24 06:05:57;;;;;;;2.35;0.90;;;;;;;5.27;85.19;95933.09;4937900;29;20165;-75
2020/12/24 06:08:29;;;;;;;1.88;0.90;;;;;;;5.22;85.39;95932.88;4929905;29;20424;-75
2020/12/24 06:11:07;;;;;;;6.95;1.38;;;;;;;5.18;85.39;95923.06;4937374;29;20048;-75
2020/12/24 06:13:44;;;;;;;4.13;0.85;;;;;;;5.16;85.42;95925.06;4937070;29;20055;-76
2020/12/24 06:16:12;;;;;;;4.18;0.93;;;;;;;5.14;85.38;95919.25;4937387;29;20063;-76
2020/12/24 06:18:41;;;;;;;7.47;1.65;;;;;;;5.16;85.77;95922.47;4920592;29;20051;-75
2020/12/24 06:21:17;;;;;;;4.47;1.02;;;;;;;5.19;85.79;95904.69;4937144;29;20047;-75
2020/12/24 06:23:51;;;;;;;4.00;1.30;;;;;;;5.19;85.54;95902.06;4923786;29;20060;-75
2020/12/24 06:26:24;;;;;;;2.30;1.00;;;;;;;5.19;85.41;95896.88;4936820;29;20048;-75
2020/12/24 06:28:55;;;;;;;3.60;1.00;;;;;;;5.17;85.50;95893.69;4936938;29;20051;-75
2020/12/24 06:31:22;;;;;;;3.58;1.20;;;;;;;5.15;85.20;95892.28;4937086;29;20407;-75
2020/12/24 06:33:48;;;;;;;4.07;1.00;;;;;;;5.11;85.34;95883.28;4936756;29;20419;-75
2020/12/24 06:41:42;;;;;;;5.43;1.10;;;;;;;5.00;85.49;95880.25;5183209;23;20067;-75
2020/12/24 06:44:08;;;;;;;2.40;1.10;;;;;;;4.99;85.51;95878.63;4917366;29;20052;-76
2020/12/24 06:46:56;;;;;;;7.13;3.80;;;;;;;5.00;85.24;95877.66;4917869;29;20052;-76
2020/12/24 06:49:32;;;;;;;63.15;28.80;;;;;;;4.95;85.14;95868.84;4917342;29;20055;-76
2020/12/24 06:51:59;;;;;;;67.70;33.08;;;;;;;4.91;84.87;95873.59;4917421;29;20048;-76
2020/12/24 06:54:27;;;;;;;35.85;17.17;;;;;;;4.90;85.38;95879.81;4917082;29;20044;-76
2020/12/24 06:57:19;;;;;;;11.70;3.97;;;;;;;4.90;84.40;95877.22;4917142;29;20052;-76
2020/12/24 06:59:46;;;;;;;5.53;1.85;;;;;;;4.91;84.81;95880.63;4906038;29;20059;-75
2020/12/24 07:02:24;;;;;;;9.85;1.33;;;;;;;4.94;83.40;95869.84;4917524;29;20052;-76
2020/12/24 07:04:50;;;;;;;4.65;1.35;;;;;;;4.99;84.40;95877.84;4917387;29;20048;-76
2020/12/24 07:07:44;;;;;;;6.25;1.48;;;;;;;5.03;83.59;95874.66;4916928;29;20059;-76
2020/12/24 07:10:41;;;;;;;6.90;1.33;;;;;;;5.08;82.95;95866.25;4911644;29;20048;-75
2020/12/24 07:13:07;;;;;;;8.15;1.55;;;;;;;5.12;83.69;95870.06;4917102;29;20059;-76
2020/12/24 07:15:42;;;;;;;7.65;1.02;;;;;;;5.17;82.28;95872.88;4917095;29;20059;-76
2020/12/24 07:18:13;;;;;;;6.72;1.20;;;;;;;5.21;83.06;95873.28;4916965;29;20060;-75
2020/12/24 07:20:39;;;;;;;6.95;1.42;;;;;;;5.25;83.46;95861.50;4884994;29;20062;-76
2020/12/24 07:23:06;;;;;;;5.82;1.80;;;;;;;5.30;82.95;95879.91;4917085;29;20048;-76
2020/12/24 07:25:35;;;;;;;7.90;2.30;;;;;;;5.29;82.53;95863.50;4900494;29;20043;-76
2020/12/24 07:28:02;;;;;;;6.93;1.30;;;;;;;5.34;82.89;95867.31;4916969;29;20063;-76
2020/12/24 07:30:29;;;;;;;5.43;1.33;;;;;;;5.36;82.50;95868.69;4899934;29;20408;-76
2020/12/24 07:32:57;;;;;;;4.25;1.30;;;;;;;5.39;82.27;95867.50;4916860;29;20048;-76
2020/12/24 07:35:23;;;;;;;6.13;1.38;;;;;;;5.41;81.91;95865.50;4916855;29;20151;-76
2020/12/24 07:40:32;;;;;;;3.58;1.50;;;;;;;5.47;80.74;95868.09;5292459;23;20023;-75
2020/12/24 07:43:08;;;;;;;4.97;1.52;;;;;;;5.51;80.13;95868.50;4918239;29;20059;-76
2020/12/24 07:45:35;;;;;;;9.38;1.80;;;;;;;5.55;81.48;95869.72;4935650;29;20043;-76
2020/12/24 07:48:01;;;;;;;10.07;2.17;;;;;;;5.55;81.05;95867.13;4935715;29;20067;-76
2020/12/24 07:50:31;;;;;;;12.23;1.70;;;;;;;5.58;80.69;95866.69;4918231;29;20039;-76
2020/12/24 07:52:57;;;;;;;5.97;1.83;;;;;;;5.59;80.88;95870.91;4919181;29;20039;-76
2020/12/24 07:55:24;;;;;;;7.53;1.30;;;;;;;5.63;80.85;95879.91;4936209;29;20043;-75
2020/12/24 07:57:50;;;;;;;5.70;1.40;;;;;;;5.66;80.93;95878.72;4918643;29;20063;-75
2020/12/24 08:00:17;;;;;;;6.68;1.40;;;;;;;5.65;80.45;95872.72;4935584;29;20058;-76
2020/12/24 08:02:43;;;;;;;4.50;1.13;;;;;;;5.66;80.52;95863.09;4935288;29;20047;-76
2020/12/24 08:05:09;;;;;;;11.60;1.95;;;;;;;5.66;80.37;95871.69;4918810;29;20115;-75
2020/12/24 08:07:36;;;;;;;6.07;1.17;;;;;;;5.66;80.43;95863.09;4918033;29;20051;-76
2020/12/24 08:10:10;;;;;;;4.72;1.30;;;;;;;5.63;79.61;95869.50;4902879;29;20036;-76
2020/12/24 08:12:37;;;;;;;8.45;1.52;;;;;;;5.63;80.15;95873.91;4918264;29;20060;-75
2020/12/24 08:15:14;;;;;;;6.22;1.30;;;;;;;5.62;80.13;95874.91;4918362;29;20431;-76
2020/12/24 08:17:48;;;;;;;7.15;1.30;;;;;;;5.59;80.78;95870.13;4918146;29;20043;-76
2020/12/24 08:20:16;;;;;;;5.43;1.38;;;;;;;5.54;80.46;95883.69;4935792;29;20039;-75
2020/12/24 08:22:51;;;;;;;7.88;1.42;;;;;;;5.52;80.68;95884.91;4918416;29;20396;-75
2020/12/24 08:25:18;;;;;;;7.80;3.15;;;;;;;5.46;80.65;95863.91;4902937;29;20067;-76
2020/12/24 08:27:46;;;;;;;9.20;1.67;;;;;;;5.45;80.99;95866.69;4903026;29;20055;-76
2020/12/24 08:30:14;;;;;;;6.32;1.75;;;;;;;5.41;80.75;95863.69;4918467;29;20043;-76
2020/12/24 08:32:40;;;;;;;4.43;1.20;;;;;;;5.38;81.05;95860.72;4918459;29;20035;-75
2020/12/24 08:35:11;;;;;;;4.90;1.17;;;;;;;5.32;81.13;95853.72;4934488;29;20408;-75
2020/12/24 08:40:24;;;;;;;3.50;1.88;;;;;;;5.21;81.45;95863.69;5385624;23;20767;-75
2020/12/24 08:43:00;;;;;;;6.18;1.85;;;;;;;5.20;81.73;95863.88;4915419;29;20512;-76
2020/12/24 08:45:27;;;;;;;4.38;1.27;;;;;;;5.20;81.59;95875.06;4919523;29;20404;-76
2020/12/24 08:47:53;;;;;;;5.72;1.20;;;;;;;5.20;81.38;95871.69;4919518;29;20063;-76
2020/12/24 08:50:34;;;;;;;6.32;1.10;;;;;;;5.18;81.92;95877.06;4919679;29;20048;-76
2020/12/24 08:53:04;;;;;;;3.42;1.10;;;;;;;5.19;81.17;95881.28;4919845;29;20036;-76
2020/12/24 08:55:32;;;;;;;5.85;1.30;;;;;;;5.19;81.45;95889.09;4902555;29;20396;-76
2020/12/24 08:57:59;;;;;;;1.35;0.80;;;;;;;5.24;81.24;95883.28;4919476;29;20059;-76
2020/12/24 09:00:25;;;;;;;4.22;1.10;;;;;;;5.28;81.44;95881.88;4902363;29;20055;-76
2020/12/24 09:02:52;;;;;;;2.92;1.23;;;;;;;5.30;81.25;95887.69;4919768;29;20063;-76
2020/12/24 09:05:23;;;;;;;2.10;0.82;;;;;;;5.34;81.15;95880.31;4902747;29;20059;-76
2020/12/24 09:07:49;;;;;;;4.82;1.30;;;;;;;5.38;81.11;95881.50;4903213;29;20055;-76
2020/12/24 09:10:23;;;;;;;2.90;0.80;;;;;;;5.40;80.95;95882.91;4918243;29;20048;-78
2020/12/24 09:12:56;;;;;;;4.15;0.82;;;;;;;5.43;80.82;95884.31;4920117;29;20392;-78
2020/12/24 09:15:25;;;;;;;5.38;0.98;;;;;;;5.46;80.53;95894.31;4902090;29;20044;-76
2020/12/24 09:17:53;;;;;;;3.25;1.00;;;;;;;5.49;80.76;95899.91;4919643;29;20464;-76
2020/12/24 09:20:27;;;;;;;1.45;0.80;;;;;;;5.52;81.08;95905.72;4919164;29;20040;-79
2020/12/24 09:23:01;;;;;;;4.00;1.13;;;;;;;5.54;80.47;95904.50;4919045;29;20056;-78
2020/12/24 09:25:30;;;;;;;2.78;1.00;;;;;;;5.60;80.83;95897.72;4901635;29;20056;-76
2020/12/24 09:27:57;;;;;;;3.45;0.90;;;;;;;5.62;81.02;95901.72;4918804;29;20058;-75
2020/12/24 09:30:24;;;;;;;4.53;1.00;;;;;;;5.64;80.66;95907.50;4908398;29;20047;-78
2020/12/24 09:32:56;;;;;;;3.95;0.80;;;;;;;5.67;80.18;95909.72;4918081;29;20055;-79
2020/12/24 09:35:24;;;;;;;4.93;1.20;;;;;;;5.68;80.23;95910.53;4902345;29;20055;-78
2020/12/24 09:38:14;;;;;;;6.15;0.77;;;;;;;5.68;79.74;95900.91;4901158;29;20369;-76
2020/12/24 09:40:49;;;;;;;2.30;1.02;;;;;;;5.70;80.17;95911.13;4909559;29;20071;-76
2020/12/24 09:43:16;;;;;;;6.30;1.08;;;;;;;5.72;79.55;95900.53;4918024;29;20048;-76
2020/12/24 09:45:42;;;;;;;3.10;1.05;;;;;;;5.75;80.01;95903.50;4895659;29;20040;-75
2020/12/24 09:48:08;;;;;;;3.67;1.30;;;;;;;5.78;79.49;95897.13;4918833;29;20412;-76
2020/12/24 09:50:34;;;;;;;3.35;1.08;;;;;;;5.79;79.70;95906.53;4894167;29;20048;-76
2020/12/24 09:53:02;;;;;;;4.43;1.23;;;;;;;5.82;79.82;95906.13;4918546;29;20067;-77
2020/12/24 09:55:28;;;;;;;2.85;0.90;;;;;;;5.84;79.55;95904.13;4919184;29;20048;-76
2020/12/24 09:57:54;;;;;;;3.70;1.20;;;;;;;5.87;79.52;95911.53;4918362;29;20055;-76
2020/12/24 10:00:22;;;;;;;3.72;1.10;;;;;;;5.95;79.47;95902.75;4918288;29;20067;-79
2020/12/24 10:02:48;;;;;;;3.67;0.95;;;;;;;6.01;79.27;95917.56;4918259;29;20044;-76
2020/12/24 10:05:14;;;;;;;3.08;0.93;;;;;;;6.08;79.39;95916.53;4891820;29;20052;-76
2020/12/24 10:07:40;;;;;;;4.82;1.00;;;;;;;6.14;79.29;95907.13;4901508;29;20052;-76
2020/12/24 10:10:07;;;;;;;3.28;0.70;;;;;;;6.18;78.86;95907.53;4917755;29;20464;-76
2020/12/24 10:12:34;;;;;;;3.17;0.80;;;;;;;6.21;78.65;95907.09;4918269;29;20369;-76
2020/12/24 10:15:00;;;;;;;4.78;1.10;;;;;;;6.23;78.27;95908.50;4918100;29;20055;-76
2020/12/24 10:17:26;;;;;;;2.15;0.80;;;;;;;6.28;78.19;95905.31;4911393;29;20047;-76
2020/12/24 10:19:53;;;;;;;6.57;1.25;;;;;;;6.36;78.40;95915.47;4901159;29;20048;-76
2020/12/24 10:22:20;;;;;;;3.47;0.90;;;;;;;6.46;77.91;95915.06;4885972;29;20044;-76
2020/12/24 10:24:46;;;;;;;2.55;0.80;;;;;;;6.65;78.06;95911.59;4918603;29;20051;-76
2020/12/24 10:27:13;;;;;;;2.45;0.90;;;;;;;6.76;77.45;95904.97;4900836;29;20056;-76
2020/12/24 10:29:40;;;;;;;3.53;1.48;;;;;;;6.94;77.30;95906.88;4917804;29;20075;-76
2020/12/24 10:32:07;;;;;;;1.92;0.90;;;;;;;7.10;77.27;95895.97;4918104;29;20052;-76
2020/12/24 10:34:34;;;;;;;3.13;1.38;;;;;;;7.22;76.66;95898.69;4917850;29;20052;-76
2020/12/24 10:37:24;;;;;;;3.30;0.90;;;;;;;7.23;75.28;95889.88;4917912;29;20044;-76
2020/12/24 10:39:56;;;;;;;2.55;0.70;;;;;;;7.23;75.70;95896.91;4904556;29;20056;-76
2020/12/24 10:42:23;;;;;;;2.38;1.20;;;;;;;7.20;76.26;95890.31;4913531;29;20071;-76
2020/12/24 10:44:51;;;;;;;6.20;1.10;;;;;;;7.19;76.30;95887.91;4906786;29;20518;-76
2020/12/24 10:47:20;;;;;;;2.10;0.90;;;;;;;7.15;76.16;95879.69;4903324;29;20059;-76
2020/12/24 10:49:49;;;;;;;1.10;0.80;;;;;;;7.11;76.07;95881.91;4905074;29;20056;-76
2020/12/24 10:52:18;;;;;;;2.58;1.00;;;;;;;7.08;76.01;95877.13;4909405;29;20052;-76
2020/12/24 10:54:47;;;;;;;2.80;1.13;;;;;;;7.10;74.11;95875.09;4891249;29;20404;-76
2020/12/24 10:57:16;;;;;;;3.22;1.02;;;;;;;7.06;75.42;95886.97;4909198;29;20048;-77
2020/12/24 10:59:45;;;;;;;1.60;0.70;;;;;;;7.01;75.39;95885.97;4914349;29;20048;-76
2020/12/24 11:02:14;;;;;;;2.78;0.88;;;;;;;7.02;75.50;95883.16;4904278;29;20044;-76
2020/12/24 11:04:42;;;;;;;2.08;0.77;;;;;;;7.03;75.31;95889.97;4906946;29;20056;-77
2020/12/24 11:07:11;;;;;;;1.30;0.80;;;;;;;7.03;75.66;95883.97;4876154;29;20061;-76
2020/12/24 11:09:40;;;;;;;3.83;1.30;;;;;;;7.05;75.64;95892.38;4911653;29;20056;-76
2020/12/24 11:12:09;;;;;;;2.45;1.40;;;;;;;7.06;75.36;95888.78;4908378;29;20052;-76
2020/12/24 11:14:38;;;;;;;0.88;0.50;;;;;;;7.08;75.34;95897.19;4891368;29;20070;-76
2020/12/24 11:17:07;;;;;;;1.73;0.90;;;;;;;7.08;75.09;95894.56;4903152;29;20052;-77
2020/12/24 11:19:35;;;;;;;2.35;1.00;;;;;;;7.08;75.46;95887.53;4908816;29;20063;-77
2020/12/24 11:22:04;;;;;;;1.65;1.00;;;;;;;7.13;74.99;95891.34;4907639;29;20044;-76
2020/12/24 11:24:33;;;;;;;1.50;0.90;;;;;;;7.15;74.89;95895.31;4889870;29;20408;-79
2020/12/24 11:27:02;;;;;;;5.65;2.00;;;;;;;7.63;81.14;95900.03;4901584;29;20390;-78
2020/12/24 11:29:30;;;;;;;3.45;1.63;;;;;;;8.27;79.52;95899.88;4904774;29;20061;-79
2020/12/24 11:31:58;;;;;;;2.20;1.27;;;;;;;8.63;76.24;95903.53;4890016;29;20055;-77
2020/12/24 11:34:29;;;;;;;3.17;0.68;;;;;;;8.48;73.93;95907.34;4909518;29;20048;-76
2020/12/24 11:36:59;;;;;;;1.05;0.70;;;;;;;8.16;72.88;95904.00;4888751;29;20493;-77
2020/12/24 11:39:28;;;;;;;3.50;1.30;;;;;;;7.93;73.28;95910.63;4904208;29;20044;-76
2020/12/24 11:41:57;;;;;;;2.13;0.70;;;;;;;7.69;73.14;95893.16;4891556;29;20052;-76
2020/12/24 11:44:26;;;;;;;0.98;0.80;;;;;;;7.56;73.67;95901.06;4905470;29;21164;-77
2020/12/24 11:46:58;;;;;;;2.25;0.63;;;;;;;7.49;73.84;95896.72;4889826;29;20417;-77
2020/12/24 11:49:27;;;;;;;3.15;1.90;;;;;;;7.42;74.06;95900.38;4903377;29;20071;-77
2020/12/24 11:52:04;;;;;;;0.88;0.65;;;;;;;7.40;73.48;95891.97;4907642;29;20056;-76
2020/12/24 11:54:36;;;;;;;3.00;0.80;;;;;;;7.31;73.70;95884.41;4906431;29;20044;-77
2020/12/24 11:57:05;;;;;;;2.13;0.93;;;;;;;7.25;73.73;95884.44;4888362;29;20508;-76
2020/12/24 11:59:34;;;;;;;2.42;0.85;;;;;;;7.20;73.86;95881.66;4907542;29;20408;-76
2020/12/24 12:02:03;;;;;;;2.30;0.70;;;;;;;7.17;74.11;95882.09;4890423;29;20503;-76
2020/12/24 12:04:32;;;;;;;1.55;0.60;;;;;;;7.14;74.04;95879.88;4906879;29;20068;-76
2020/12/24 12:07:01;;;;;;;1.33;0.95;;;;;;;7.10;74.14;95877.72;4908982;29;20060;-77